This is the latest recevied weather packets stored in our database for station/object 9M2IBR-1. If no packets are shown the sender has not sent any weather packets the latest 10 day(s).
| Time | Temp. | Humidity | Pressure | Rain* | Wind** | Luminosity | Snow |
|---|---|---|---|---|---|---|---|
| 1777703742 | 35° C | 70% | 1007.1 hPa | 0 mm | - | 722 W/m² | - |
| 1777702820 | 34.44° C | 71% | 1007.3 hPa | 0 mm | - | 739 W/m² | - |
| 1777702229 | 34.44° C | 71% | 1007.4 hPa | 0 mm | - | 738 W/m² | - |
| 1777700416 | 32.78° C | 75% | 1007.9 hPa | 0 mm | - | 335 W/m² | - |
| 1777700134 | 32.78° C | 74% | 1007.9 hPa | 0 mm | - | 246 W/m² | - |
| 1777698921 | 35° C | 67% | 1008.2 hPa | 0 mm | - | 629 W/m² | - |
| 1777697123 | 34.44° C | 68% | 1008.8 hPa | 0 mm | - | 549 W/m² | - |
| 1777695327 | 34.44° C | 67% | 1009.4 hPa | 0 mm | - | 676 W/m² | - |
| 1777690846 | 33.33° C | 71% | 1009.7 hPa | 0 mm | - | 817 W/m² | - |
| 1777690543 | 33.33° C | 70% | 1009.6 hPa | 0 mm | - | 823 W/m² | - |
| 1777690251 | 33.33° C | 71% | 1009.7 hPa | 0 mm | - | 845 W/m² | - |
| 1777688747 | 32.22° C | 74% | 1009.9 hPa | 0 mm | - | 608 W/m² | - |
| 1777688425 | 31.11° C | 77% | 1009.8 hPa | 0 mm | - | 618 W/m² | - |
| 1777686043 | 30.56° C | 79% | 1009.9 hPa | 0 mm | - | 454 W/m² | - |
| 1777685726 | 30.56° C | 79% | 1009.8 hPa | 0 mm | - | 419 W/m² | - |
| 1777684528 | 29.44° C | 85% | 1009.6 hPa | 0 mm | - | 308 W/m² | - |
| 1777683341 | 27.78° C | 90% | 1009.1 hPa | 0 mm | - | 233 W/m² | - |
| 1777681826 | 26.11° C | 95% | 1008.9 hPa | 0 mm | - | 148 W/m² | - |
| 1777679122 | 24.44° C | 99% | 1008.5 hPa | 0 mm | - | 41 W/m² | - |
| 1777677934 | 23.89° C | 99% | 1008.1 hPa | 0 mm | - | 17 W/m² | - |
| 1777675247 | 23.89° C | 99% | 1007.4 hPa | 0 mm | - | 0 W/m² | - |
| 1777674623 | 23.89° C | 99% | 1007.2 hPa | 0 mm | - | 0 W/m² | - |
| 1777672825 | 23.89° C | 99% | 1007.2 hPa | 0 mm | - | 0 W/m² | - |
| 1777671028 | 23.89° C | 99% | 1007.6 hPa | 0 mm | - | 0 W/m² | - |
| 1777669825 | 23.89° C | 99% | 1007.4 hPa | 0 mm | - | 0 W/m² | - |
* Rain latest hour (hover to see other rain measurements)
** Current wind speed in m/s (hover to see current wind gust speed)